sensor_id;sensor_type;location;lat;lon;timestamp;temperature;humidity
48728;DHT22;34527;45.618;5.130;2022-12-18T00:01:00;-0.30;99.90
48728;DHT22;34527;45.618;5.130;2022-12-18T00:03:26;-0.30;99.90
48728;DHT22;34527;45.618;5.130;2022-12-18T00:05:52;-0.30;99.90
48728;DHT22;34527;45.618;5.130;2022-12-18T00:08:19;-0.30;99.90
48728;DHT22;34527;45.618;5.130;2022-12-18T00:10:45;-0.20;99.90
48728;DHT22;34527;45.618;5.130;2022-12-18T00:13:12;-0.20;99.90
48728;DHT22;34527;45.618;5.130;2022-12-18T00:15:39;-0.20;99.90
48728;DHT22;34527;45.618;5.130;2022-12-18T00:18:05;-0.20;99.90
48728;DHT22;34527;45.618;5.130;2022-12-18T00:20:38;-0.20;99.90
48728;DHT22;34527;45.618;5.130;2022-12-18T00:23:06;-0.20;99.90
48728;DHT22;34527;45.618;5.130;2022-12-18T00:25:33;-0.40;99.90
48728;DHT22;34527;45.618;5.130;2022-12-18T00:28:00;-0.30;99.90
48728;DHT22;34527;45.618;5.130;2022-12-18T00:30:26;-0.30;99.90
48728;DHT22;34527;45.618;5.130;2022-12-18T00:32:52;-0.30;99.90
48728;DHT22;34527;45.618;5.130;2022-12-18T00:35:18;-0.30;99.90
48728;DHT22;34527;45.618;5.130;2022-12-18T00:37:44;-0.30;99.90
48728;DHT22;34527;45.618;5.130;2022-12-18T00:40:10;-0.30;99.90
48728;DHT22;34527;45.618;5.130;2022-12-18T00:42:36;-0.40;99.90
48728;DHT22;34527;45.618;5.130;2022-12-18T00:45:21;-0.40;99.90
48728;DHT22;34527;45.618;5.130;2022-12-18T00:47:47;-0.40;99.90
48728;DHT22;34527;45.618;5.130;2022-12-18T00:50:12;-0.50;99.90
48728;DHT22;34527;45.618;5.130;2022-12-18T00:52:38;-0.60;99.90
48728;DHT22;34527;45.618;5.130;2022-12-18T00:55:04;-0.60;99.90
48728;DHT22;34527;45.618;5.130;2022-12-18T00:57:30;-0.60;99.90
48728;DHT22;34527;45.618;5.130;2022-12-18T00:59:56;-0.70;99.90
48728;DHT22;34527;45.618;5.130;2022-12-18T01:02:23;-0.70;99.90
48728;DHT22;34527;45.618;5.130;2022-12-18T01:04:48;-0.70;99.90
48728;DHT22;34527;45.618;5.130;2022-12-18T01:07:14;-0.80;99.90
48728;DHT22;34527;45.618;5.130;2022-12-18T01:09:40;-0.80;99.90
48728;DHT22;34527;45.618;5.130;2022-12-18T01:12:06;-0.80;99.90
48728;DHT22;34527;45.618;5.130;2022-12-18T01:14:32;-0.80;99.90
48728;DHT22;34527;45.618;5.130;2022-12-18T01:16:58;-0.80;99.90
48728;DHT22;34527;45.618;5.130;2022-12-18T01:19:24;-0.80;99.90
48728;DHT22;34527;45.618;5.130;2022-12-18T01:21:50;-0.80;99.90
48728;DHT22;34527;45.618;5.130;2022-12-18T01:24:15;-0.90;99.90
48728;DHT22;34527;45.618;5.130;2022-12-18T01:26:41;-1.00;99.90
48728;DHT22;34527;45.618;5.130;2022-12-18T01:29:07;-1.00;99.90
48728;DHT22;34527;45.618;5.130;2022-12-18T01:31:33;-1.00;99.90
48728;DHT22;34527;45.618;5.130;2022-12-18T01:34:04;-1.10;99.90
48728;DHT22;34527;45.618;5.130;2022-12-18T01:36:36;-1.10;99.90
48728;DHT22;34527;45.618;5.130;2022-12-18T01:39:06;-1.10;99.90
48728;DHT22;34527;45.618;5.130;2022-12-18T01:41:33;-1.20;99.90
48728;DHT22;34527;45.618;5.130;2022-12-18T01:49:54;-1.20;99.90
48728;DHT22;34527;45.618;5.130;2022-12-18T01:52:21;-1.20;99.90
48728;DHT22;34527;45.618;5.130;2022-12-18T01:54:49;-1.30;99.90
48728;DHT22;34527;45.618;5.130;2022-12-18T01:57:15;-1.30;99.90
48728;DHT22;34527;45.618;5.130;2022-12-18T01:59:43;-1.30;99.90
48728;DHT22;34527;45.618;5.130;2022-12-18T02:02:11;-1.30;99.90
48728;DHT22;34527;45.618;5.130;2022-12-18T02:04:37;-1.30;99.90
48728;DHT22;34527;45.618;5.130;2022-12-18T02:10:00;-1.30;99.90
48728;DHT22;34527;45.618;5.130;2022-12-18T02:12:45;-1.30;99.90
48728;DHT22;34527;45.618;5.130;2022-12-18T02:15:26;-1.30;99.90
48728;DHT22;34527;45.618;5.130;2022-12-18T02:18:12;-1.20;99.90
48728;DHT22;34527;45.618;5.130;2022-12-18T02:20:54;-1.30;99.90
48728;DHT22;34527;45.618;5.130;2022-12-18T02:26:15;-1.30;99.90
48728;DHT22;34527;45.618;5.130;2022-12-18T02:31:28;-1.40;99.90
48728;DHT22;34527;45.618;5.130;2022-12-18T02:33:56;-1.40;99.90
48728;DHT22;34527;45.618;5.130;2022-12-18T02:36:25;-1.30;99.90
48728;DHT22;34527;45.618;5.130;2022-12-18T02:38:52;-1.40;99.90
48728;DHT22;34527;45.618;5.130;2022-12-18T02:41:19;-1.30;99.90
48728;DHT22;34527;45.618;5.130;2022-12-18T02:43:52;-1.30;99.90
48728;DHT22;34527;45.618;5.130;2022-12-18T02:46:37;-1.40;99.90
48728;DHT22;34527;45.618;5.130;2022-12-18T02:49:31;-1.40;99.90
48728;DHT22;34527;45.618;5.130;2022-12-18T02:52:25;-1.40;99.90
48728;DHT22;34527;45.618;5.130;2022-12-18T02:55:06;-1.50;99.90
48728;DHT22;34527;45.618;5.130;2022-12-18T02:57:49;-1.50;99.90
48728;DHT22;34527;45.618;5.130;2022-12-18T03:00:24;-1.60;99.90
48728;DHT22;34527;45.618;5.130;2022-12-18T03:03:05;-1.60;99.90
48728;DHT22;34527;45.618;5.130;2022-12-18T03:05:51;-1.60;99.90
48728;DHT22;34527;45.618;5.130;2022-12-18T03:08:23;-1.60;99.90
48728;DHT22;34527;45.618;5.130;2022-12-18T03:10:58;-1.60;99.90
48728;DHT22;34527;45.618;5.130;2022-12-18T03:13:33;-1.60;99.90
48728;DHT22;34527;45.618;5.130;2022-12-18T03:16:00;-1.70;99.90
48728;DHT22;34527;45.618;5.130;2022-12-18T03:18:35;-1.60;99.90
48728;DHT22;34527;45.618;5.130;2022-12-18T03:21:04;-1.60;99.90
48728;DHT22;34527;45.618;5.130;2022-12-18T03:23:36;-1.60;99.90
48728;DHT22;34527;45.618;5.130;2022-12-18T03:26:09;-1.70;99.90
48728;DHT22;34527;45.618;5.130;2022-12-18T03:28:38;-1.70;99.90
48728;DHT22;34527;45.618;5.130;2022-12-18T03:31:09;-1.80;99.90
48728;DHT22;34527;45.618;5.130;2022-12-18T03:36:05;-1.70;99.90
48728;DHT22;34527;45.618;5.130;2022-12-18T03:38:31;-1.70;99.90
48728;DHT22;34527;45.618;5.130;2022-12-18T03:41:09;-1.70;99.90
48728;DHT22;34527;45.618;5.130;2022-12-18T03:46:58;-1.80;99.90
48728;DHT22;34527;45.618;5.130;2022-12-18T03:49:38;-1.80;99.90
48728;DHT22;34527;45.618;5.130;2022-12-18T03:52:18;-1.80;99.90
48728;DHT22;34527;45.618;5.130;2022-12-18T03:54:46;-1.80;99.90
48728;DHT22;34527;45.618;5.130;2022-12-18T03:57:25;-1.80;99.90
48728;DHT22;34527;45.618;5.130;2022-12-18T03:59:55;-1.80;99.90
48728;DHT22;34527;45.618;5.130;2022-12-18T04:02:23;-1.80;99.90
48728;DHT22;34527;45.618;5.130;2022-12-18T04:04:52;-1.80;99.90
48728;DHT22;34527;45.618;5.130;2022-12-18T04:07:20;-1.70;99.90
48728;DHT22;34527;45.618;5.130;2022-12-18T04:09:47;-1.80;99.90
48728;DHT22;34527;45.618;5.130;2022-12-18T04:12:14;-1.90;99.90
48728;DHT22;34527;45.618;5.130;2022-12-18T04:14:40;-1.90;99.90
48728;DHT22;34527;45.618;5.130;2022-12-18T04:17:05;-1.90;99.90
48728;DHT22;34527;45.618;5.130;2022-12-18T04:19:31;-1.90;99.90
48728;DHT22;34527;45.618;5.130;2022-12-18T04:21:57;-1.90;99.90
48728;DHT22;34527;45.618;5.130;2022-12-18T04:24:23;-1.80;99.90
48728;DHT22;34527;45.618;5.130;2022-12-18T04:26:49;-1.80;99.90
48728;DHT22;34527;45.618;5.130;2022-12-18T04:29:15;-1.80;99.90
48728;DHT22;34527;45.618;5.130;2022-12-18T04:31:40;-1.90;99.90
48728;DHT22;34527;45.618;5.130;2022-12-18T04:34:06;-1.90;99.90
48728;DHT22;34527;45.618;5.130;2022-12-18T04:36:32;-2.00;99.90
48728;DHT22;34527;45.618;5.130;2022-12-18T04:38:58;-2.00;99.90
48728;DHT22;34527;45.618;5.130;2022-12-18T04:41:24;-2.00;99.90
48728;DHT22;34527;45.618;5.130;2022-12-18T04:43:50;-2.00;99.90
48728;DHT22;34527;45.618;5.130;2022-12-18T04:46:15;-2.00;99.90
48728;DHT22;34527;45.618;5.130;2022-12-18T04:48:41;-1.90;99.90
48728;DHT22;34527;45.618;5.130;2022-12-18T04:51:07;-1.90;99.90
48728;DHT22;34527;45.618;5.130;2022-12-18T04:53:33;-1.90;99.90
48728;DHT22;34527;45.618;5.130;2022-12-18T04:56:17;-1.90;99.90
48728;DHT22;34527;45.618;5.130;2022-12-18T04:58:44;-1.90;99.90
48728;DHT22;34527;45.618;5.130;2022-12-18T05:01:11;-1.90;99.90
48728;DHT22;34527;45.618;5.130;2022-12-18T05:03:38;-1.90;99.90
48728;DHT22;34527;45.618;5.130;2022-12-18T05:06:05;-1.90;99.90
48728;DHT22;34527;45.618;5.130;2022-12-18T05:08:31;-1.90;99.90
48728;DHT22;34527;45.618;5.130;2022-12-18T05:11:02;-1.90;99.90
48728;DHT22;34527;45.618;5.130;2022-12-18T05:13:28;-1.90;99.90
48728;DHT22;34527;45.618;5.130;2022-12-18T05:15:54;-1.90;99.90
48728;DHT22;34527;45.618;5.130;2022-12-18T05:18:21;-2.00;99.90
48728;DHT22;34527;45.618;5.130;2022-12-18T05:20:48;-1.90;99.90
48728;DHT22;34527;45.618;5.130;2022-12-18T05:23:14;-1.90;99.90
48728;DHT22;34527;45.618;5.130;2022-12-18T05:25:40;-2.00;99.90
48728;DHT22;34527;45.618;5.130;2022-12-18T05:28:06;-1.90;99.90
48728;DHT22;34527;45.618;5.130;2022-12-18T05:30:31;-1.80;99.90
48728;DHT22;34527;45.618;5.130;2022-12-18T05:32:57;-1.90;99.90
48728;DHT22;34527;45.618;5.130;2022-12-18T05:35:23;-1.90;99.90
48728;DHT22;34527;45.618;5.130;2022-12-18T05:37:49;-1.80;99.90
48728;DHT22;34527;45.618;5.130;2022-12-18T05:40:15;-1.80;99.90
48728;DHT22;34527;45.618;5.130;2022-12-18T05:42:41;-1.80;99.90
48728;DHT22;34527;45.618;5.130;2022-12-18T05:45:07;-1.80;99.90
48728;DHT22;34527;45.618;5.130;2022-12-18T05:47:33;-1.70;99.90
48728;DHT22;34527;45.618;5.130;2022-12-18T05:49:59;-1.80;99.90
48728;DHT22;34527;45.618;5.130;2022-12-18T05:52:25;-1.80;99.90
48728;DHT22;34527;45.618;5.130;2022-12-18T05:54:50;-1.80;99.90
48728;DHT22;34527;45.618;5.130;2022-12-18T05:57:16;-1.90;99.90
48728;DHT22;34527;45.618;5.130;2022-12-18T05:59:42;-1.80;99.90
48728;DHT22;34527;45.618;5.130;2022-12-18T06:02:08;-1.80;99.90
48728;DHT22;34527;45.618;5.130;2022-12-18T06:04:34;-1.80;99.90
48728;DHT22;34527;45.618;5.130;2022-12-18T06:07:00;-1.90;99.90
48728;DHT22;34527;45.618;5.130;2022-12-18T06:09:25;-1.80;99.90
48728;DHT22;34527;45.618;5.130;2022-12-18T06:11:51;-1.80;99.90
48728;DHT22;34527;45.618;5.130;2022-12-18T06:14:18;-1.80;99.90
48728;DHT22;34527;45.618;5.130;2022-12-18T06:16:43;-1.80;99.90
48728;DHT22;34527;45.618;5.130;2022-12-18T06:19:14;-1.80;99.90
48728;DHT22;34527;45.618;5.130;2022-12-18T06:21:41;-1.80;99.90
48728;DHT22;34527;45.618;5.130;2022-12-18T06:24:07;-1.80;99.90
48728;DHT22;34527;45.618;5.130;2022-12-18T06:26:33;-1.80;99.90
48728;DHT22;34527;45.618;5.130;2022-12-18T06:28:59;-1.80;99.90
48728;DHT22;34527;45.618;5.130;2022-12-18T06:31:26;-1.80;99.90
48728;DHT22;34527;45.618;5.130;2022-12-18T06:33:51;-1.70;99.90
48728;DHT22;34527;45.618;5.130;2022-12-18T06:36:17;-1.80;99.90
48728;DHT22;34527;45.618;5.130;2022-12-18T06:38:44;-1.70;99.90
48728;DHT22;34527;45.618;5.130;2022-12-18T06:41:17;-1.70;99.90
48728;DHT22;34527;45.618;5.130;2022-12-18T06:43:44;-1.80;99.90
48728;DHT22;34527;45.618;5.130;2022-12-18T06:46:11;-1.80;99.90
48728;DHT22;34527;45.618;5.130;2022-12-18T06:48:37;-1.70;99.90
48728;DHT22;34527;45.618;5.130;2022-12-18T06:51:03;-1.70;99.90
48728;DHT22;34527;45.618;5.130;2022-12-18T06:53:29;-1.70;99.90
48728;DHT22;34527;45.618;5.130;2022-12-18T06:56:03;-1.80;99.90
48728;DHT22;34527;45.618;5.130;2022-12-18T06:58:29;-1.70;99.90
48728;DHT22;34527;45.618;5.130;2022-12-18T07:01:06;-1.70;99.90
48728;DHT22;34527;45.618;5.130;2022-12-18T07:03:32;-1.70;99.90
48728;DHT22;34527;45.618;5.130;2022-12-18T07:05:58;-1.60;99.90
48728;DHT22;34527;45.618;5.130;2022-12-18T07:08:24;-1.70;99.90
48728;DHT22;34527;45.618;5.130;2022-12-18T07:10:50;-1.80;99.90
48728;DHT22;34527;45.618;5.130;2022-12-18T07:13:17;-1.80;99.90
48728;DHT22;34527;45.618;5.130;2022-12-18T07:15:43;-1.70;99.90
48728;DHT22;34527;45.618;5.130;2022-12-18T07:18:09;-1.70;99.90
48728;DHT22;34527;45.618;5.130;2022-12-18T07:20:35;-1.70;99.90
48728;DHT22;34527;45.618;5.130;2022-12-18T07:23:03;-1.70;99.90
48728;DHT22;34527;45.618;5.130;2022-12-18T07:25:29;-1.70;99.90
48728;DHT22;34527;45.618;5.130;2022-12-18T07:27:55;-1.60;99.90
48728;DHT22;34527;45.618;5.130;2022-12-18T07:30:20;-1.70;99.90
48728;DHT22;34527;45.618;5.130;2022-12-18T07:32:46;-1.70;99.90
48728;DHT22;34527;45.618;5.130;2022-12-18T07:35:12;-1.70;99.90
48728;DHT22;34527;45.618;5.130;2022-12-18T07:37:38;-1.70;99.90
48728;DHT22;34527;45.618;5.130;2022-12-18T07:40:04;-1.60;99.90
48728;DHT22;34527;45.618;5.130;2022-12-18T07:42:30;-1.60;99.90
48728;DHT22;34527;45.618;5.130;2022-12-18T07:44:57;-1.50;99.90
48728;DHT22;34527;45.618;5.130;2022-12-18T07:47:22;-1.40;99.90
48728;DHT22;34527;45.618;5.130;2022-12-18T07:49:48;-1.40;99.90
48728;DHT22;34527;45.618;5.130;2022-12-18T07:52:14;-1.50;99.90
48728;DHT22;34527;45.618;5.130;2022-12-18T07:54:40;-1.40;99.90
48728;DHT22;34527;45.618;5.130;2022-12-18T07:57:07;-1.40;99.90
48728;DHT22;34527;45.618;5.130;2022-12-18T07:59:33;-1.40;99.90
48728;DHT22;34527;45.618;5.130;2022-12-18T08:01:59;-1.40;99.90
48728;DHT22;34527;45.618;5.130;2022-12-18T08:04:25;-1.30;99.90
48728;DHT22;34527;45.618;5.130;2022-12-18T08:06:51;-1.30;99.90
48728;DHT22;34527;45.618;5.130;2022-12-18T08:09:17;-1.20;99.90
48728;DHT22;34527;45.618;5.130;2022-12-18T08:11:43;-1.20;99.90
48728;DHT22;34527;45.618;5.130;2022-12-18T08:14:09;-1.20;99.90
48728;DHT22;34527;45.618;5.130;2022-12-18T08:16:35;-1.10;99.90
48728;DHT22;34527;45.618;5.130;2022-12-18T08:19:01;-1.10;99.90
48728;DHT22;34527;45.618;5.130;2022-12-18T08:21:29;-1.00;99.90
48728;DHT22;34527;45.618;5.130;2022-12-18T08:23:57;-0.90;99.90
48728;DHT22;34527;45.618;5.130;2022-12-18T08:26:24;-0.90;99.90
48728;DHT22;34527;45.618;5.130;2022-12-18T08:28:51;-0.80;99.90
48728;DHT22;34527;45.618;5.130;2022-12-18T08:31:17;-0.60;99.90
48728;DHT22;34527;45.618;5.130;2022-12-18T08:33:43;-0.50;99.90
48728;DHT22;34527;45.618;5.130;2022-12-18T08:36:10;-0.40;99.90
48728;DHT22;34527;45.618;5.130;2022-12-18T08:38:36;-0.30;99.90
48728;DHT22;34527;45.618;5.130;2022-12-18T08:41:04;-0.20;99.90
48728;DHT22;34527;45.618;5.130;2022-12-18T08:43:30;-0.10;99.90
48728;DHT22;34527;45.618;5.130;2022-12-18T08:46:14;0.10;99.90
48728;DHT22;34527;45.618;5.130;2022-12-18T08:48:40;0.30;99.90
48728;DHT22;34527;45.618;5.130;2022-12-18T08:51:06;0.30;99.90
48728;DHT22;34527;45.618;5.130;2022-12-18T08:53:32;0.40;99.90
48728;DHT22;34527;45.618;5.130;2022-12-18T08:55:58;0.50;99.90
48728;DHT22;34527;45.618;5.130;2022-12-18T08:58:24;0.50;99.90
48728;DHT22;34527;45.618;5.130;2022-12-18T09:00:49;0.60;99.90
48728;DHT22;34527;45.618;5.130;2022-12-18T09:03:17;0.70;99.90
48728;DHT22;34527;45.618;5.130;2022-12-18T09:05:45;0.90;99.90
48728;DHT22;34527;45.618;5.130;2022-12-18T09:08:11;1.00;99.90
48728;DHT22;34527;45.618;5.130;2022-12-18T09:10:48;1.10;99.90
48728;DHT22;34527;45.618;5.130;2022-12-18T09:13:14;1.20;99.90
48728;DHT22;34527;45.618;5.130;2022-12-18T09:15:45;1.30;99.90
48728;DHT22;34527;45.618;5.130;2022-12-18T09:18:13;1.40;99.90
48728;DHT22;34527;45.618;5.130;2022-12-18T09:20:39;1.50;99.90
48728;DHT22;34527;45.618;5.130;2022-12-18T09:23:05;1.60;99.90
48728;DHT22;34527;45.618;5.130;2022-12-18T09:25:32;1.70;99.90
48728;DHT22;34527;45.618;5.130;2022-12-18T09:28:18;1.80;99.90
48728;DHT22;34527;45.618;5.130;2022-12-18T09:30:48;1.90;99.90
48728;DHT22;34527;45.618;5.130;2022-12-18T09:33:15;2.00;99.90
48728;DHT22;34527;45.618;5.130;2022-12-18T09:35:42;2.10;99.90
48728;DHT22;34527;45.618;5.130;2022-12-18T09:38:12;2.20;99.90
48728;DHT22;34527;45.618;5.130;2022-12-18T09:41:33;2.30;99.90
48728;DHT22;34527;45.618;5.130;2022-12-18T09:43:51;2.40;99.90
48728;DHT22;34527;45.618;5.130;2022-12-18T09:46:33;2.50;99.90
48728;DHT22;34527;45.618;5.130;2022-12-18T09:49:03;2.70;99.90
48728;DHT22;34527;45.618;5.130;2022-12-18T09:51:41;2.80;99.90
48728;DHT22;34527;45.618;5.130;2022-12-18T09:54:18;2.90;99.90
48728;DHT22;34527;45.618;5.130;2022-12-18T09:56:46;3.00;99.90
48728;DHT22;34527;45.618;5.130;2022-12-18T09:59:23;3.00;99.90
48728;DHT22;34527;45.618;5.130;2022-12-18T10:01:50;3.10;99.90
48728;DHT22;34527;45.618;5.130;2022-12-18T10:04:16;3.20;99.90
48728;DHT22;34527;45.618;5.130;2022-12-18T10:07:19;3.30;99.90
48728;DHT22;34527;45.618;5.130;2022-12-18T10:09:58;3.40;99.90
48728;DHT22;34527;45.618;5.130;2022-12-18T10:13:39;3.60;99.90
48728;DHT22;34527;45.618;5.130;2022-12-18T10:15:34;3.70;99.90
48728;DHT22;34527;45.618;5.130;2022-12-18T10:20:49;3.80;99.90
48728;DHT22;34527;45.618;5.130;2022-12-18T10:23:32;3.90;99.90
48728;DHT22;34527;45.618;5.130;2022-12-18T10:26:00;3.90;99.90
48728;DHT22;34527;45.618;5.130;2022-12-18T10:28:30;4.10;99.90
48728;DHT22;34527;45.618;5.130;2022-12-18T10:30:56;4.20;99.90
48728;DHT22;34527;45.618;5.130;2022-12-18T10:33:27;4.40;99.90
48728;DHT22;34527;45.618;5.130;2022-12-18T10:35:54;4.40;99.90
48728;DHT22;34527;45.618;5.130;2022-12-18T10:38:21;4.50;99.90
48728;DHT22;34527;45.618;5.130;2022-12-18T10:40:55;4.70;99.90
48728;DHT22;34527;45.618;5.130;2022-12-18T10:43:30;4.80;99.90
48728;DHT22;34527;45.618;5.130;2022-12-18T10:46:17;4.90;99.90
48728;DHT22;34527;45.618;5.130;2022-12-18T10:51:36;5.10;99.90
48728;DHT22;34527;45.618;5.130;2022-12-18T10:54:17;5.20;99.90
48728;DHT22;34527;45.618;5.130;2022-12-18T10:56:43;5.20;99.90
48728;DHT22;34527;45.618;5.130;2022-12-18T10:59:12;5.30;99.90
48728;DHT22;34527;45.618;5.130;2022-12-18T11:01:55;5.40;99.90
48728;DHT22;34527;45.618;5.130;2022-12-18T11:04:29;5.50;99.90
48728;DHT22;34527;45.618;5.130;2022-12-18T11:07:04;5.60;99.90
48728;DHT22;34527;45.618;5.130;2022-12-18T11:09:36;5.80;99.90
48728;DHT22;34527;45.618;5.130;2022-12-18T11:12:19;6.00;99.90
48728;DHT22;34527;45.618;5.130;2022-12-18T11:14:53;6.40;99.90
48728;DHT22;34527;45.618;5.130;2022-12-18T11:17:32;6.30;99.90
48728;DHT22;34527;45.618;5.130;2022-12-18T11:20:04;6.70;99.90
48728;DHT22;34527;45.618;5.130;2022-12-18T11:22:34;6.90;99.90
48728;DHT22;34527;45.618;5.130;2022-12-18T11:25:02;7.10;99.90
48728;DHT22;34527;45.618;5.130;2022-12-18T11:27:28;7.30;99.90
48728;DHT22;34527;45.618;5.130;2022-12-18T11:32:49;7.50;99.90
48728;DHT22;34527;45.618;5.130;2022-12-18T11:44:45;8.00;99.90
48728;DHT22;34527;45.618;5.130;2022-12-18T11:47:31;8.20;99.90
48728;DHT22;34527;45.618;5.130;2022-12-18T11:50:03;8.40;99.90
48728;DHT22;34527;45.618;5.130;2022-12-18T11:52:38;8.40;99.90
48728;DHT22;34527;45.618;5.130;2022-12-18T12:01:20;8.70;99.90
48728;DHT22;34527;45.618;5.130;2022-12-18T12:10:10;8.80;99.90
48728;DHT22;34527;45.618;5.130;2022-12-18T12:25:45;9.10;99.90
48728;DHT22;34527;45.618;5.130;2022-12-18T12:28:19;9.20;99.90
48728;DHT22;34527;45.618;5.130;2022-12-18T12:34:11;9.40;99.90
48728;DHT22;34527;45.618;5.130;2022-12-18T12:39:36;9.50;99.90
48728;DHT22;34527;45.618;5.130;2022-12-18T12:42:10;9.50;99.90
48728;DHT22;34527;45.618;5.130;2022-12-18T12:44:58;9.50;99.90
48728;DHT22;34527;45.618;5.130;2022-12-18T12:47:32;9.50;99.90
48728;DHT22;34527;45.618;5.130;2022-12-18T12:50:01;9.60;99.90
48728;DHT22;34527;45.618;5.130;2022-12-18T12:52:37;9.60;99.90
48728;DHT22;34527;45.618;5.130;2022-12-18T12:55:07;9.70;99.90
48728;DHT22;34527;45.618;5.130;2022-12-18T12:57:40;9.70;99.90
48728;DHT22;34527;45.618;5.130;2022-12-18T13:00:16;9.70;99.90
48728;DHT22;34527;45.618;5.130;2022-12-18T13:03:46;9.70;99.90
48728;DHT22;34527;45.618;5.130;2022-12-18T13:06:03;9.60;99.90
48728;DHT22;34527;45.618;5.130;2022-12-18T13:08:31;9.70;99.90
48728;DHT22;34527;45.618;5.130;2022-12-18T13:10:59;9.70;99.90
48728;DHT22;34527;45.618;5.130;2022-12-18T13:13:55;9.70;99.90
48728;DHT22;34527;45.618;5.130;2022-12-18T13:16:25;9.80;99.90
48728;DHT22;34527;45.618;5.130;2022-12-18T13:18:55;9.80;99.90
48728;DHT22;34527;45.618;5.130;2022-12-18T13:21:30;9.60;99.90
48728;DHT22;34527;45.618;5.130;2022-12-18T13:23:56;9.70;99.90
48728;DHT22;34527;45.618;5.130;2022-12-18T13:26:36;9.70;99.90
48728;DHT22;34527;45.618;5.130;2022-12-18T13:29:03;9.70;99.90
48728;DHT22;34527;45.618;5.130;2022-12-18T13:34:28;9.80;99.90
48728;DHT22;34527;45.618;5.130;2022-12-18T13:37:38;9.80;99.90
48728;DHT22;34527;45.618;5.130;2022-12-18T13:39:43;9.90;99.90
48728;DHT22;34527;45.618;5.130;2022-12-18T13:44:39;9.90;99.90
48728;DHT22;34527;45.618;5.130;2022-12-18T13:47:26;9.80;99.90
48728;DHT22;34527;45.618;5.130;2022-12-18T13:49:54;9.90;99.90
48728;DHT22;34527;45.618;5.130;2022-12-18T13:52:28;9.80;99.90
48728;DHT22;34527;45.618;5.130;2022-12-18T13:54:59;9.90;99.90
48728;DHT22;34527;45.618;5.130;2022-12-18T13:57:35;9.90;99.90
48728;DHT22;34527;45.618;5.130;2022-12-18T14:02:47;10.00;99.90
48728;DHT22;34527;45.618;5.130;2022-12-18T14:05:22;10.00;99.90
48728;DHT22;34527;45.618;5.130;2022-12-18T14:07:49;10.00;99.90
48728;DHT22;34527;45.618;5.130;2022-12-18T14:10:16;10.10;99.90
48728;DHT22;34527;45.618;5.130;2022-12-18T14:12:46;10.10;99.90
48728;DHT22;34527;45.618;5.130;2022-12-18T14:17:52;10.00;99.90
48728;DHT22;34527;45.618;5.130;2022-12-18T14:20:18;10.00;99.90
48728;DHT22;34527;45.618;5.130;2022-12-18T14:22:47;10.10;99.90
48728;DHT22;34527;45.618;5.130;2022-12-18T14:25:25;10.10;99.90
48728;DHT22;34527;45.618;5.130;2022-12-18T14:30:31;10.10;99.90
48728;DHT22;34527;45.618;5.130;2022-12-18T14:33:12;10.00;99.90
48728;DHT22;34527;45.618;5.130;2022-12-18T14:35:41;10.00;99.90
48728;DHT22;34527;45.618;5.130;2022-12-18T14:38:24;10.00;99.90
48728;DHT22;34527;45.618;5.130;2022-12-18T14:41:01;10.10;99.90
48728;DHT22;34527;45.618;5.130;2022-12-18T14:43:30;10.00;99.90
48728;DHT22;34527;45.618;5.130;2022-12-18T14:45:57;10.00;99.90
48728;DHT22;34527;45.618;5.130;2022-12-18T14:48:41;9.90;99.90
48728;DHT22;34527;45.618;5.130;2022-12-18T14:51:18;9.90;99.90
48728;DHT22;34527;45.618;5.130;2022-12-18T14:53:46;9.80;99.90
48728;DHT22;34527;45.618;5.130;2022-12-18T14:56:16;9.70;99.90
48728;DHT22;34527;45.618;5.130;2022-12-18T14:58:52;9.70;99.90
48728;DHT22;34527;45.618;5.130;2022-12-18T15:01:21;9.60;99.90
48728;DHT22;34527;45.618;5.130;2022-12-18T15:03:48;9.60;99.90
48728;DHT22;34527;45.618;5.130;2022-12-18T15:09:03;9.50;99.90
48728;DHT22;34527;45.618;5.130;2022-12-18T15:11:54;9.50;99.90
48728;DHT22;34527;45.618;5.130;2022-12-18T15:17:22;9.60;99.90
48728;DHT22;34527;45.618;5.130;2022-12-18T15:19:50;9.60;99.90
48728;DHT22;34527;45.618;5.130;2022-12-18T15:22:18;9.70;99.90
48728;DHT22;34527;45.618;5.130;2022-12-18T15:24:44;9.50;99.90
48728;DHT22;34527;45.618;5.130;2022-12-18T15:27:30;9.50;99.90
48728;DHT22;34527;45.618;5.130;2022-12-18T15:30:19;9.60;99.90
48728;DHT22;34527;45.618;5.130;2022-12-18T15:32:46;9.50;99.90
48728;DHT22;34527;45.618;5.130;2022-12-18T15:35:20;9.60;99.90
48728;DHT22;34527;45.618;5.130;2022-12-18T15:37:46;9.60;99.90
48728;DHT22;34527;45.618;5.130;2022-12-18T15:40:14;9.60;99.90
48728;DHT22;34527;45.618;5.130;2022-12-18T15:42:41;9.50;99.90
48728;DHT22;34527;45.618;5.130;2022-12-18T15:45:25;9.70;99.90
48728;DHT22;34527;45.618;5.130;2022-12-18T15:47:51;9.60;99.90
48728;DHT22;34527;45.618;5.130;2022-12-18T15:50:17;9.60;99.90
48728;DHT22;34527;45.618;5.130;2022-12-18T15:52:45;9.50;99.90
48728;DHT22;34527;45.618;5.130;2022-12-18T15:55:14;9.50;99.90
48728;DHT22;34527;45.618;5.130;2022-12-18T15:57:59;9.40;99.90
48728;DHT22;34527;45.618;5.130;2022-12-18T16:00:25;9.50;99.90
48728;DHT22;34527;45.618;5.130;2022-12-18T16:02:51;9.50;99.90
48728;DHT22;34527;45.618;5.130;2022-12-18T16:05:18;9.50;99.90
48728;DHT22;34527;45.618;5.130;2022-12-18T16:07:45;9.40;99.90
48728;DHT22;34527;45.618;5.130;2022-12-18T16:10:11;9.50;99.90
48728;DHT22;34527;45.618;5.130;2022-12-18T16:12:37;9.40;99.90
48728;DHT22;34527;45.618;5.130;2022-12-18T16:15:04;9.40;99.90
48728;DHT22;34527;45.618;5.130;2022-12-18T16:17:31;9.10;99.90
48728;DHT22;34527;45.618;5.130;2022-12-18T16:19:57;9.20;99.90
48728;DHT22;34527;45.618;5.130;2022-12-18T16:22:25;9.20;99.90
48728;DHT22;34527;45.618;5.130;2022-12-18T16:24:53;9.30;99.90
48728;DHT22;34527;45.618;5.130;2022-12-18T16:27:19;9.50;99.90
48728;DHT22;34527;45.618;5.130;2022-12-18T16:29:46;9.40;99.90
48728;DHT22;34527;45.618;5.130;2022-12-18T16:32:14;9.40;99.90
48728;DHT22;34527;45.618;5.130;2022-12-18T16:34:40;9.40;99.90
48728;DHT22;34527;45.618;5.130;2022-12-18T16:37:08;9.50;99.90
48728;DHT22;34527;45.618;5.130;2022-12-18T16:39:35;9.50;99.90
48728;DHT22;34527;45.618;5.130;2022-12-18T16:42:16;9.50;99.90
48728;DHT22;34527;45.618;5.130;2022-12-18T16:44:45;9.60;99.90
48728;DHT22;34527;45.618;5.130;2022-12-18T16:47:12;9.60;99.90
48728;DHT22;34527;45.618;5.130;2022-12-18T16:49:38;9.60;99.90
48728;DHT22;34527;45.618;5.130;2022-12-18T16:52:05;9.50;99.90
48728;DHT22;34527;45.618;5.130;2022-12-18T16:54:31;9.30;99.90
48728;DHT22;34527;45.618;5.130;2022-12-18T16:56:59;9.10;99.90
48728;DHT22;34527;45.618;5.130;2022-12-18T16:59:26;8.90;99.90
48728;DHT22;34527;45.618;5.130;2022-12-18T17:01:52;8.80;99.90
48728;DHT22;34527;45.618;5.130;2022-12-18T17:04:18;8.70;99.90
48728;DHT22;34527;45.618;5.130;2022-12-18T17:06:44;8.50;99.90
48728;DHT22;34527;45.618;5.130;2022-12-18T17:09:18;8.40;99.90
48728;DHT22;34527;45.618;5.130;2022-12-18T17:11:48;8.30;99.90
48728;DHT22;34527;45.618;5.130;2022-12-18T17:14:17;8.10;99.90
48728;DHT22;34527;45.618;5.130;2022-12-18T17:16:43;8.00;99.90
48728;DHT22;34527;45.618;5.130;2022-12-18T17:19:10;7.90;99.90
48728;DHT22;34527;45.618;5.130;2022-12-18T17:21:36;7.80;99.90
48728;DHT22;34527;45.618;5.130;2022-12-18T17:24:02;7.60;99.90